createdAt,value
2022-08-03T00:01:25.209Z,19.34
2022-08-03T00:03:56.549Z,19.46
2022-08-03T00:06:22.982Z,19.16
2022-08-03T00:08:49.355Z,19.65
2022-08-03T00:11:15.755Z,19.85
2022-08-03T00:13:42.161Z,18.97
2022-08-03T00:16:10.574Z,19.53
2022-08-03T00:18:37.555Z,19.43
2022-08-03T00:21:04.423Z,19.03
2022-08-03T00:23:51.753Z,19.80
2022-08-03T00:26:17.647Z,19.23
2022-08-03T00:28:44.108Z,19.78
2022-08-03T00:31:13.599Z,19.60
2022-08-03T00:33:58.708Z,19.58
2022-08-03T00:36:28.197Z,19.65
2022-08-03T00:38:56.199Z,19.16
2022-08-03T00:41:22.894Z,19.55
2022-08-03T00:43:49.473Z,18.33
2022-08-03T00:46:21.062Z,19.09
2022-08-03T00:48:55.972Z,19.35
2022-08-03T00:51:22.890Z,19.17
2022-08-03T00:53:50.215Z,19.18
2022-08-03T00:56:20.501Z,19.12
2022-08-03T00:58:47.291Z,19.02
2022-08-03T01:01:15.138Z,18.96
2022-08-03T01:03:41.858Z,18.88
2022-08-03T01:06:18.509Z,18.85
2022-08-03T01:08:52.417Z,18.84
2022-08-03T01:12:01.192Z,18.67
2022-08-03T01:14:41.480Z,18.32
2022-08-03T01:17:19.388Z,18.80
2022-08-03T01:19:48.770Z,18.80
2022-08-03T01:22:40.262Z,18.40
2022-08-03T01:25:20.861Z,18.82
2022-08-03T01:28:41.406Z,18.80
2022-08-03T01:31:11.708Z,18.79
2022-08-03T01:33:46.477Z,18.81
2022-08-03T01:36:15.970Z,18.78
2022-08-03T01:38:48.181Z,18.42
2022-08-03T01:41:20.126Z,18.21
2022-08-03T01:44:26.643Z,18.59
2022-08-03T01:46:38.326Z,18.44
2022-08-03T01:49:09.441Z,18.60
2022-08-03T01:52:03.550Z,18.48
2022-08-03T01:54:26.369Z,18.32
2022-08-03T01:56:58.918Z,18.08
2022-08-03T01:59:28.906Z,18.31
2022-08-03T02:02:28.468Z,18.09
2022-08-03T02:04:46.990Z,17.56
2022-08-03T02:07:14.970Z,18.03
2022-08-03T02:09:45.030Z,18.28
2022-08-03T02:12:14.112Z,18.41
2022-08-03T02:14:43.224Z,17.28
2022-08-03T02:17:11.061Z,18.52
2022-08-03T02:19:38.483Z,18.51
2022-08-03T02:22:08.348Z,18.00
2022-08-03T02:24:34.807Z,18.32
2022-08-03T02:27:04.073Z,17.81
2022-08-03T02:29:39.054Z,17.79
2022-08-03T02:32:13.862Z,17.40
2022-08-03T02:34:44.209Z,18.41
2022-08-03T02:37:12.875Z,18.25
2022-08-03T02:39:42.293Z,18.21
2022-08-03T02:42:12.771Z,18.38
2022-08-03T02:44:41.495Z,17.54
2022-08-03T02:47:10.856Z,18.18
2022-08-03T02:49:51.675Z,17.95
2022-08-03T02:52:24.226Z,18.04
2022-08-03T02:54:54.842Z,17.77
2022-08-03T02:57:22.799Z,18.05
2022-08-03T02:59:50.605Z,18.04
2022-08-03T03:02:18.432Z,18.01
2022-08-03T03:04:59.689Z,18.00
2022-08-03T03:07:37.258Z,17.98
2022-08-03T03:10:21.322Z,17.57
2022-08-03T03:12:50.229Z,17.94
2022-08-03T03:15:16.777Z,17.91
2022-08-03T03:17:44.181Z,17.85
2022-08-03T03:20:11.982Z,16.77
2022-08-03T03:22:40.063Z,17.40
2022-08-03T03:25:10.265Z,17.53
2022-08-03T03:27:37.027Z,16.57
2022-08-03T03:30:05.339Z,17.39
2022-08-03T03:32:32.105Z,17.44
2022-08-03T03:34:59.697Z,17.30
2022-08-03T03:37:29.121Z,17.56
2022-08-03T03:39:55.729Z,17.24
2022-08-03T03:42:22.720Z,17.72
2022-08-03T03:44:49.325Z,17.54
2022-08-03T03:47:15.881Z,17.42
2022-08-03T03:49:43.985Z,17.62
2022-08-03T03:52:10.714Z,17.25
2022-08-03T03:54:45.165Z,17.60
2022-08-03T03:57:12.918Z,17.38
2022-08-03T03:59:41.548Z,17.42
2022-08-03T04:02:09.210Z,16.90
2022-08-03T04:04:55.594Z,17.51
2022-08-03T04:07:43.067Z,16.40
2022-08-03T04:10:45.669Z,17.51
2022-08-03T04:13:15.088Z,16.88
2022-08-03T04:15:42.061Z,17.25
2022-08-03T04:18:13.681Z,17.61
2022-08-03T04:20:44.534Z,18.18
2022-08-03T04:23:15.941Z,18.31
2022-08-03T04:25:43.957Z,18.05
2022-08-03T04:28:31.276Z,18.58
2022-08-03T04:30:59.456Z,19.04
2022-08-03T04:33:29.585Z,18.67
2022-08-03T04:36:02.249Z,19.61
2022-08-03T04:38:32.823Z,20.22
2022-08-03T04:41:00.799Z,19.95
2022-08-03T04:43:28.125Z,20.85
2022-08-03T04:45:56.188Z,21.37
2022-08-03T04:48:22.783Z,20.95
2022-08-03T04:50:49.264Z,21.71
2022-08-03T04:53:17.714Z,21.27
2022-08-03T04:55:44.693Z,21.76
2022-08-03T04:58:12.494Z,21.99
2022-08-03T05:00:41.889Z,22.48
2022-08-03T05:03:19.526Z,23.54
2022-08-03T05:06:01.604Z,23.64
2022-08-03T05:08:36.914Z,24.33
2022-08-03T05:11:18.261Z,24.20
2022-08-03T05:13:45.471Z,23.70
2022-08-03T05:16:12.400Z,24.26
2022-08-03T05:18:38.788Z,24.69
2022-08-03T05:21:05.353Z,24.37
2022-08-03T05:23:34.698Z,24.48
2022-08-03T05:26:01.117Z,24.81
2022-08-03T05:28:27.729Z,25.39
2022-08-03T05:30:54.110Z,25.60
2022-08-03T05:33:20.523Z,25.44
2022-08-03T05:36:02.561Z,25.55
2022-08-03T05:38:35.093Z,25.70
2022-08-03T05:41:21.215Z,25.49
2022-08-03T05:43:53.879Z,26.22
2022-08-03T05:46:21.277Z,26.49
2022-08-03T05:48:47.879Z,26.78
2022-08-03T05:51:14.311Z,27.47
2022-08-03T05:53:42.832Z,27.33
2022-08-03T05:56:13.583Z,27.39
2022-08-03T05:58:41.835Z,27.55
2022-08-03T06:01:08.340Z,27.43
2022-08-03T06:03:34.784Z,27.27
2022-08-03T06:06:03.911Z,26.64
2022-08-03T06:08:30.717Z,26.34
2022-08-03T06:10:57.132Z,26.37
2022-08-03T06:13:23.559Z,25.46
2022-08-03T06:15:49.992Z,25.23
2022-08-03T06:18:16.345Z,24.75
2022-08-03T06:20:42.804Z,24.29
2022-08-03T06:23:15.983Z,24.05
2022-08-03T06:25:44.093Z,23.94
2022-08-03T06:28:19.125Z,24.01
2022-08-03T06:30:55.715Z,24.80
2022-08-03T06:33:26.178Z,24.15
2022-08-03T06:36:12.528Z,24.57
2022-08-03T06:38:38.945Z,24.59
2022-08-03T06:41:05.308Z,24.02
2022-08-03T06:43:35.863Z,24.41
2022-08-03T06:46:02.544Z,24.45
2022-08-03T06:48:28.946Z,24.86
2022-08-03T06:50:55.365Z,24.76
2022-08-03T06:53:22.333Z,24.97
2022-08-03T06:55:53.920Z,24.84
2022-08-03T06:58:21.234Z,25.21
2022-08-03T07:00:47.959Z,25.27
2022-08-03T07:03:15.026Z,25.27
2022-08-03T07:05:42.307Z,25.29
2022-08-03T07:08:08.839Z,25.20
2022-08-03T07:10:35.314Z,24.97
2022-08-03T07:13:01.714Z,25.54
2022-08-03T07:15:38.341Z,25.32
2022-08-03T07:18:14.604Z,25.47
2022-08-03T07:20:41.281Z,25.25
2022-08-03T07:23:07.866Z,25.76
2022-08-03T07:25:34.283Z,26.24
2022-08-03T07:28:02.706Z,26.31
2022-08-03T07:30:29.173Z,26.65
2022-08-03T07:32:55.718Z,26.71
2022-08-03T07:35:25.184Z,27.31
2022-08-03T07:37:54.730Z,26.48
2022-08-03T07:40:22.140Z,27.24
2022-08-03T07:42:48.773Z,27.34
2022-08-03T07:45:21.442Z,26.81
2022-08-03T07:47:53.580Z,26.98
2022-08-03T07:50:20.708Z,26.31
2022-08-03T07:52:50.742Z,27.18
2022-08-03T07:55:25.672Z,26.87
2022-08-03T07:58:06.702Z,27.51
2022-08-03T08:00:33.970Z,27.15
2022-08-03T08:03:00.360Z,27.05
2022-08-03T08:05:27.902Z,27.38
2022-08-03T08:07:54.441Z,27.32
2022-08-03T08:10:20.917Z,27.65
2022-08-03T08:12:48.253Z,27.33
2022-08-03T08:15:14.740Z,27.71
2022-08-03T08:17:49.885Z,27.84
2022-08-03T08:20:27.677Z,27.83
2022-08-03T08:23:09.599Z,28.37
2022-08-03T08:25:53.855Z,28.08
2022-08-03T08:28:32.935Z,28.31
2022-08-03T08:31:00.760Z,28.57
2022-08-03T08:33:37.422Z,28.33
2022-08-03T08:36:13.314Z,28.37
2022-08-03T08:38:42.640Z,28.88
2022-08-03T08:41:10.775Z,28.97
2022-08-03T08:43:37.422Z,28.73
2022-08-03T08:46:05.100Z,28.92
2022-08-03T08:48:31.994Z,29.18
2022-08-03T08:51:00.857Z,29.06
2022-08-03T08:53:29.195Z,29.01
2022-08-03T08:56:00.926Z,29.12
2022-08-03T08:58:36.934Z,29.11
2022-08-03T09:01:04.033Z,29.37
2022-08-03T09:03:33.878Z,29.21
2022-08-03T09:06:01.146Z,29.83
2022-08-03T09:08:29.177Z,29.68
2022-08-03T09:10:55.641Z,29.67
2022-08-03T09:13:22.558Z,29.85
2022-08-03T09:15:53.328Z,29.74
2022-08-03T09:18:33.344Z,29.17
2022-08-03T09:21:31.105Z,29.97
2022-08-03T09:24:04.202Z,30.33
2022-08-03T09:26:33.152Z,30.47
2022-08-03T09:29:11.193Z,30.23
2022-08-03T09:31:43.608Z,30.06
2022-08-03T09:34:16.653Z,30.09
2022-08-03T09:36:51.621Z,30.41
2022-08-03T09:39:40.478Z,30.47
2022-08-03T09:42:18.379Z,30.95
2022-08-03T09:44:50.457Z,30.72
2022-08-03T09:47:31.151Z,31.31
2022-08-03T09:50:01.883Z,31.33
2022-08-03T09:52:52.349Z,31.19
2022-08-03T09:56:34.643Z,30.31
2022-08-03T09:58:10.263Z,30.92
2022-08-03T10:01:05.362Z,31.27
2022-08-03T10:03:35.013Z,31.56
2022-08-03T10:06:16.413Z,31.37
2022-08-03T10:08:42.784Z,31.28
2022-08-03T10:11:09.238Z,31.21
2022-08-03T10:13:37.089Z,31.94
2022-08-03T10:16:22.769Z,32.06
2022-08-03T10:18:50.706Z,31.74
2022-08-03T10:21:20.174Z,31.98
2022-08-03T10:23:47.253Z,31.98
2022-08-03T10:26:18.953Z,32.07
2022-08-03T10:28:50.378Z,31.97
2022-08-03T10:31:20.471Z,32.09
2022-08-03T10:33:53.025Z,32.13
2022-08-03T10:36:24.401Z,32.08
2022-08-03T10:38:53.812Z,32.27
2022-08-03T10:41:22.499Z,31.84
2022-08-03T10:44:08.892Z,32.08
2022-08-03T10:46:44.180Z,32.03
2022-08-03T10:49:14.935Z,31.61
2022-08-03T10:51:44.224Z,32.10
2022-08-03T10:54:58.796Z,32.36
2022-08-03T10:57:58.329Z,32.82
2022-08-03T11:00:27.664Z,32.69
2022-08-03T11:03:16.636Z,32.82
2022-08-03T11:05:47.263Z,32.81
2022-08-03T11:08:21.633Z,32.73
2022-08-03T11:10:50.244Z,33.09
2022-08-03T11:13:19.557Z,32.90
2022-08-03T11:15:47.594Z,32.97
2022-08-03T11:18:15.062Z,32.89
2022-08-03T11:20:57.761Z,32.82
2022-08-03T11:24:04.660Z,32.67
2022-08-03T11:26:30.778Z,32.90
2022-08-03T11:29:28.942Z,32.90
2022-08-03T11:31:58.735Z,32.65
2022-08-03T11:34:25.387Z,32.97
2022-08-03T11:37:18.368Z,33.32
2022-08-03T11:39:47.429Z,33.33
2022-08-03T11:42:23.053Z,33.02
2022-08-03T11:45:09.050Z,32.38
2022-08-03T11:47:50.751Z,32.93
2022-08-03T11:50:18.995Z,32.90
2022-08-03T11:52:45.574Z,33.34
2022-08-03T11:55:14.177Z,33.30
2022-08-03T11:59:15.142Z,33.42
2022-08-03T12:00:30.390Z,33.50
2022-08-03T12:03:10.455Z,33.76
2022-08-03T12:05:57.521Z,33.73
2022-08-03T12:08:27.109Z,34.09
2022-08-03T12:10:55.425Z,34.01
2022-08-03T12:14:44.750Z,34.32
2022-08-03T12:16:09.771Z,34.36
2022-08-03T12:18:36.636Z,34.46
2022-08-03T12:21:06.721Z,34.84
2022-08-03T12:23:37.672Z,34.13
2022-08-03T12:26:09.801Z,34.04
2022-08-03T12:28:38.354Z,33.50
2022-08-03T12:31:07.537Z,33.88
2022-08-03T12:34:04.817Z,34.37
2022-08-03T12:36:33.251Z,34.44
2022-08-03T12:39:03.809Z,34.03
2022-08-03T12:41:37.383Z,34.79
2022-08-03T12:44:05.463Z,34.20
2022-08-03T12:46:42.713Z,34.55
2022-08-03T12:49:18.867Z,34.35
2022-08-03T12:51:45.321Z,34.66
2022-08-03T12:54:25.144Z,33.96
2022-08-03T12:57:02.177Z,34.47
2022-08-03T12:59:34.707Z,34.83
2022-08-03T13:02:02.480Z,34.50
2022-08-03T13:04:33.691Z,34.15
2022-08-03T13:07:14.358Z,34.02
2022-08-03T13:09:56.515Z,34.28
2022-08-03T13:12:27.644Z,33.99
2022-08-03T13:15:00.905Z,34.38
2022-08-03T13:17:27.870Z,34.24
2022-08-03T13:19:54.885Z,34.57
2022-08-03T13:22:27.133Z,34.36
2022-08-03T13:24:57.443Z,34.65
2022-08-03T13:28:04.379Z,34.70
2022-08-03T13:30:12.040Z,34.77
2022-08-03T13:32:39.012Z,35.00
2022-08-03T13:35:06.566Z,34.46
2022-08-03T13:37:33.166Z,34.78
2022-08-03T13:40:02.924Z,34.68
2022-08-03T13:42:32.109Z,34.58
2022-08-03T13:45:00.292Z,33.94
2022-08-03T13:47:27.983Z,34.60
2022-08-03T13:49:59.918Z,35.05
2022-08-03T13:52:37.545Z,34.94
2022-08-03T13:55:06.617Z,34.75
2022-08-03T13:58:05.986Z,34.96
2022-08-03T14:00:28.098Z,34.24
2022-08-03T14:03:10.818Z,34.80
2022-08-03T14:05:40.987Z,34.86
2022-08-03T14:08:07.953Z,34.90
2022-08-03T14:10:36.450Z,34.70
2022-08-03T14:13:04.425Z,34.68
2022-08-03T14:15:31.297Z,34.67
2022-08-03T14:17:59.994Z,34.36
2022-08-03T14:20:36.762Z,34.48
2022-08-03T14:23:06.909Z,35.10
2022-08-03T14:25:43.440Z,34.91
2022-08-03T14:28:23.073Z,35.16
2022-08-03T14:30:51.440Z,35.01
2022-08-03T14:33:18.169Z,34.95
2022-08-03T14:35:44.582Z,34.88
2022-08-03T14:38:11.232Z,34.20
2022-08-03T14:40:37.770Z,33.85
2022-08-03T14:43:04.215Z,34.97
2022-08-03T14:45:30.626Z,35.06
2022-08-03T14:50:10.361Z,34.81
2022-08-03T14:50:51.011Z,34.64
2022-08-03T14:53:19.425Z,34.71
2022-08-03T14:55:49.762Z,34.30
2022-08-03T14:58:25.332Z,35.09
2022-08-03T15:00:54.998Z,34.96
2022-08-03T15:03:28.312Z,34.74
2022-08-03T15:05:56.479Z,34.64
2022-08-03T15:08:24.500Z,34.67
2022-08-03T15:10:51.952Z,34.36
2022-08-03T15:13:19.730Z,35.02
2022-08-03T15:15:47.574Z,34.87
2022-08-03T15:18:13.950Z,34.25
2022-08-03T15:20:45.802Z,34.32
2022-08-03T15:23:13.812Z,34.21
2022-08-03T15:26:29.083Z,33.61
2022-08-03T15:28:26.782Z,34.13
2022-08-03T15:30:56.329Z,33.98
2022-08-03T15:33:22.790Z,33.79
2022-08-03T15:35:49.838Z,33.37
2022-08-03T15:38:16.381Z,33.55
2022-08-03T15:40:45.522Z,33.70
2022-08-03T15:43:12.203Z,33.47
2022-08-03T15:45:40.446Z,33.87
2022-08-03T15:48:08.532Z,33.69
2022-08-03T15:50:35.132Z,33.91
2022-08-03T15:53:04.744Z,33.68
2022-08-03T15:55:31.491Z,33.74
2022-08-03T15:59:09.577Z,33.48
2022-08-03T16:00:44.797Z,33.55
2022-08-03T16:03:11.334Z,33.62
2022-08-03T16:05:38.230Z,33.41
2022-08-03T16:08:07.088Z,32.86
2022-08-03T16:10:36.659Z,33.39
2022-08-03T16:13:03.167Z,33.38
2022-08-03T16:15:29.582Z,33.38
2022-08-03T16:17:56.110Z,33.29
2022-08-03T16:20:31.295Z,32.83
2022-08-03T16:23:10.834Z,32.88
2022-08-03T16:25:39.238Z,32.83
2022-08-03T16:28:13.970Z,32.22
2022-08-03T16:30:42.726Z,32.85
2022-08-03T16:33:09.508Z,32.85
2022-08-03T16:35:36.074Z,33.32
2022-08-03T16:38:07.839Z,33.08
2022-08-03T16:40:36.421Z,32.82
2022-08-03T16:43:18.503Z,33.31
2022-08-03T16:45:47.245Z,33.15
2022-08-03T16:48:15.260Z,32.59
2022-08-03T16:50:43.033Z,32.95
2022-08-03T16:53:12.821Z,32.07
2022-08-03T16:55:51.854Z,31.80
2022-08-03T16:58:34.448Z,31.85
2022-08-03T17:01:21.805Z,31.52
2022-08-03T17:04:02.564Z,31.71
2022-08-03T17:06:34.329Z,31.93
2022-08-03T17:09:02.131Z,31.42
2022-08-03T17:11:30.028Z,31.99
2022-08-03T17:13:59.965Z,31.74
2022-08-03T17:16:26.962Z,31.61
2022-08-03T17:19:02.576Z,31.82
2022-08-03T17:21:33.327Z,31.71
2022-08-03T17:24:20.546Z,31.68
2022-08-03T17:26:50.942Z,31.47
2022-08-03T17:29:22.891Z,31.68
2022-08-03T17:31:52.845Z,31.55
2022-08-03T17:34:20.709Z,31.55
2022-08-03T17:37:05.509Z,30.86
2022-08-03T17:39:57.217Z,30.94
2022-08-03T17:42:31.026Z,31.38
2022-08-03T17:45:06.727Z,31.36
2022-08-03T17:47:41.463Z,31.01
2022-08-03T17:50:24.174Z,31.13
2022-08-03T17:52:59.236Z,31.10
2022-08-03T17:55:56.381Z,30.82
2022-08-03T17:58:25.127Z,30.80
2022-08-03T18:02:02.719Z,31.05
2022-08-03T18:04:11.049Z,30.86
2022-08-03T18:06:56.251Z,30.67
2022-08-03T18:10:05.988Z,30.51
2022-08-03T18:12:18.512Z,30.69
2022-08-03T18:14:57.626Z,30.45
2022-08-03T18:17:55.063Z,30.69
2022-08-03T18:20:32.725Z,30.08
2022-08-03T18:23:04.631Z,30.49
2022-08-03T18:25:42.684Z,30.43
2022-08-03T18:28:14.470Z,29.90
2022-08-03T18:31:12.081Z,30.28
2022-08-03T18:34:32.271Z,30.21
2022-08-03T18:36:30.116Z,29.91
2022-08-03T18:38:58.792Z,30.00
2022-08-03T18:41:33.230Z,29.61
2022-08-03T18:44:08.566Z,29.68
2022-08-03T18:47:16.240Z,28.83
2022-08-03T18:53:16.514Z,29.04
2022-08-03T18:55:59.318Z,28.59
2022-08-03T18:58:39.262Z,28.70
2022-08-03T19:01:59.693Z,28.61
2022-08-03T19:04:46.381Z,28.48
2022-08-03T19:07:36.163Z,28.22
2022-08-03T19:10:09.325Z,28.41
2022-08-03T19:12:52.316Z,28.05
2022-08-03T19:15:21.257Z,27.82
2022-08-03T19:18:07.349Z,27.98
2022-08-03T19:20:37.593Z,27.81
2022-08-03T19:23:04.362Z,27.75
2022-08-03T19:25:40.297Z,27.29
2022-08-03T19:28:07.613Z,27.51
2022-08-03T19:30:38.919Z,27.20
2022-08-03T19:33:09.116Z,27.23
2022-08-03T19:35:51.655Z,26.45
2022-08-03T19:38:29.048Z,27.27
2022-08-03T19:41:02.083Z,27.03
2022-08-03T19:43:53.294Z,26.12
2022-08-03T19:46:30.807Z,26.66
2022-08-03T19:49:14.754Z,27.03
2022-08-03T19:52:02.266Z,26.97
2022-08-03T19:54:36.560Z,25.98
2022-08-03T19:57:17.487Z,26.83
2022-08-03T19:59:49.835Z,26.09
2022-08-03T20:02:26.051Z,26.66
2022-08-03T20:04:59.759Z,26.71
2022-08-03T20:07:27.441Z,25.82
2022-08-03T20:09:56.616Z,26.60
2022-08-03T20:12:26.657Z,26.55
2022-08-03T20:14:57.262Z,26.23
2022-08-03T20:17:56.087Z,26.26
2022-08-03T20:20:10.957Z,25.63
2022-08-03T20:22:42.042Z,25.94
2022-08-03T20:25:11.537Z,25.82
2022-08-03T20:28:03.621Z,25.90
2022-08-03T20:30:33.522Z,25.30
2022-08-03T20:33:00.015Z,25.08
2022-08-03T20:35:26.966Z,25.53
2022-08-03T20:37:54.725Z,25.02
2022-08-03T20:40:22.249Z,25.44
2022-08-03T20:42:55.127Z,25.70
2022-08-03T20:46:01.103Z,25.64
2022-08-03T20:48:09.899Z,25.57
2022-08-03T20:50:38.292Z,24.94
2022-08-03T20:53:06.429Z,25.08
2022-08-03T20:55:47.865Z,25.41
2022-08-03T20:58:20.220Z,24.83
2022-08-03T21:00:51.516Z,25.06
2022-08-03T21:03:18.750Z,25.02
2022-08-03T21:05:51.853Z,24.68
2022-08-03T21:08:22.601Z,24.92
2022-08-03T21:10:56.296Z,24.90
2022-08-03T21:13:00.574Z,29.28
2022-08-03T21:13:43.273Z,23.81
2022-08-03T21:16:30.113Z,24.42
2022-08-03T21:21:44.252Z,24.94
2022-08-03T21:24:13.395Z,24.63
2022-08-03T21:26:41.606Z,24.64
2022-08-03T21:29:08.756Z,24.59
2022-08-03T21:31:36.002Z,24.64
2022-08-03T21:34:05.222Z,24.35
2022-08-03T21:36:42.910Z,24.56
2022-08-03T21:39:18.971Z,24.41
2022-08-03T21:41:45.614Z,24.52
2022-08-03T21:44:12.401Z,24.02
2022-08-03T21:46:45.685Z,23.74
2022-08-03T21:50:07.322Z,24.36
2022-08-03T21:52:05.963Z,23.84
2022-08-03T21:54:41.704Z,23.93
2022-08-03T21:57:19.552Z,24.20
2022-08-03T21:59:54.232Z,23.93
2022-08-03T22:02:25.303Z,24.15
2022-08-03T22:05:05.031Z,24.13
2022-08-03T22:07:33.425Z,23.28
2022-08-03T22:10:01.888Z,24.04
2022-08-03T22:12:30.434Z,23.73
2022-08-03T22:15:02.387Z,23.63
2022-08-03T22:17:55.126Z,23.96
2022-08-03T22:20:28.544Z,23.90
2022-08-03T22:23:06.572Z,23.63
2022-08-03T22:25:36.381Z,23.22
2022-08-03T22:28:08.775Z,23.80
2022-08-03T22:30:35.754Z,23.75
2022-08-03T22:33:05.566Z,23.72
2022-08-03T22:35:47.640Z,23.75
2022-08-03T22:38:15.795Z,23.76
2022-08-03T22:40:42.778Z,22.82
2022-08-03T22:43:09.326Z,23.60
2022-08-03T22:46:07.242Z,23.73
2022-08-03T22:48:22.981Z,23.70
2022-08-03T22:50:50.062Z,23.19
2022-08-03T22:53:21.501Z,23.69
2022-08-03T22:55:48.765Z,23.46
2022-08-03T22:58:16.130Z,23.51
2022-08-03T23:01:12.907Z,23.17
2022-08-03T23:03:59.830Z,23.26
2022-08-03T23:06:36.491Z,22.82
2022-08-03T23:09:12.817Z,23.19
2022-08-03T23:11:45.618Z,22.93
2022-08-03T23:14:15.263Z,22.85
2022-08-03T23:16:43.239Z,23.00
2022-08-03T23:19:17.216Z,22.79
2022-08-03T23:22:02.351Z,22.92
2022-08-03T23:24:33.998Z,22.38
2022-08-03T23:27:03.498Z,22.69
2022-08-03T23:29:31.031Z,22.93
2022-08-03T23:31:57.988Z,22.91
2022-08-03T23:34:43.440Z,22.42
2022-08-03T23:37:12.835Z,22.84
2022-08-03T23:39:40.353Z,22.83
2022-08-03T23:42:06.935Z,22.62
2022-08-03T23:44:36.663Z,22.45
2022-08-03T23:47:03.106Z,22.66
2022-08-03T23:49:29.539Z,22.47
2022-08-03T23:52:03.674Z,22.75
2022-08-03T23:55:04.158Z,22.70
2022-08-03T23:57:51.755Z,22.62
